createdAt,value
2018-07-31T03:31:44.887Z,76.28
2018-07-31T03:34:13.314Z,76.23
2018-07-31T03:36:41.474Z,76.57
2018-07-31T03:39:10.447Z,76.17
2018-07-31T03:41:38.543Z,76.29
2018-07-31T03:44:07.099Z,77.59
2018-07-31T03:46:35.183Z,77.54
2018-07-31T03:49:03.303Z,77.57
2018-07-31T03:51:31.521Z,76.93
2018-07-31T03:53:59.603Z,76.51
2018-07-31T03:56:27.734Z,76.43
2018-07-31T03:58:55.802Z,77.00
2018-07-31T04:01:23.914Z,76.39
2018-07-31T04:03:51.999Z,77.18
2018-07-31T04:06:20.103Z,77.61
2018-07-31T04:08:48.211Z,77.35
2018-07-31T04:11:16.320Z,77.42
2018-07-31T04:13:44.426Z,76.86
2018-07-31T04:16:12.529Z,76.81
2018-07-31T04:18:40.644Z,76.78
2018-07-31T04:21:11.647Z,77.48
2018-07-31T04:26:43.984Z,78.32
2018-07-31T04:29:12.178Z,78.48
2018-07-31T04:31:40.383Z,78.04
2018-07-31T04:34:09.296Z,77.84
2018-07-31T04:36:37.449Z,77.43
2018-07-31T04:39:08.501Z,77.77
2018-07-31T04:41:36.671Z,77.12
2018-07-31T04:44:04.820Z,76.93
2018-07-31T04:46:32.955Z,76.75
2018-07-31T04:49:01.030Z,75.96
2018-07-31T04:51:29.271Z,76.21
2018-07-31T04:53:57.384Z,76.32
2018-07-31T04:56:25.478Z,75.75
2018-07-31T04:58:53.576Z,75.53
2018-07-31T05:01:21.703Z,75.35
2018-07-31T05:03:49.871Z,74.97
2018-07-31T05:06:18.244Z,73.86
2018-07-31T05:08:46.475Z,72.89
2018-07-31T05:11:14.575Z,72.22
2018-07-31T05:13:42.700Z,72.66
2018-07-31T05:16:10.795Z,72.05
2018-07-31T05:18:38.916Z,72.62
2018-07-31T05:21:07.378Z,72.06
2018-07-31T05:23:35.479Z,71.20
2018-07-31T05:26:03.577Z,72.69
2018-07-31T05:28:31.685Z,72.23
2018-07-31T05:30:59.790Z,72.28
2018-07-31T05:33:27.887Z,72.65
2018-07-31T05:35:55.971Z,71.43
2018-07-31T05:38:24.121Z,70.58
2018-07-31T05:40:52.231Z,66.20
2018-07-31T05:43:20.326Z,59.93
2018-07-31T05:45:48.831Z,55.40
2018-07-31T05:48:16.938Z,52.71
2018-07-31T05:50:45.030Z,50.53
2018-07-31T05:53:13.125Z,45.27
2018-07-31T05:55:41.726Z,42.45
2018-07-31T05:58:09.872Z,39.66
2018-07-31T06:00:37.964Z,38.17
2018-07-31T06:03:06.263Z,36.71
2018-07-31T06:05:34.350Z,35.28
2018-07-31T06:08:02.467Z,33.91
2018-07-31T06:10:30.596Z,32.69
2018-07-31T06:12:58.696Z,33.87
2018-07-31T06:15:27.112Z,34.49
2018-07-31T06:17:55.200Z,35.10
2018-07-31T06:20:23.303Z,34.24
2018-07-31T06:22:51.808Z,33.14
2018-07-31T06:25:19.914Z,31.84
2018-07-31T06:27:48.007Z,31.08
2018-07-31T06:30:16.091Z,30.74
2018-07-31T06:32:44.243Z,30.64
2018-07-31T06:35:13.207Z,31.14
2018-07-31T06:37:41.309Z,32.54
2018-07-31T06:40:10.186Z,34.31
2018-07-31T06:42:38.290Z,37.99
2018-07-31T06:45:06.488Z,39.05
2018-07-31T06:47:34.587Z,42.29
2018-07-31T06:50:04.281Z,42.71
2018-07-31T06:52:32.360Z,46.67
2018-07-31T06:55:00.464Z,49.81
2018-07-31T06:57:28.569Z,49.52
2018-07-31T06:59:56.672Z,49.44
2018-07-31T07:02:24.764Z,50.22
2018-07-31T07:04:52.865Z,50.60
2018-07-31T07:07:21.004Z,53.08
2018-07-31T07:09:49.107Z,50.09
2018-07-31T07:12:17.202Z,50.44
2018-07-31T07:14:45.319Z,48.76
2018-07-31T07:17:14.373Z,48.26
2018-07-31T07:19:42.467Z,47.98
2018-07-31T07:22:10.764Z,47.07
2018-07-31T07:24:38.856Z,47.89
2018-07-31T07:27:06.910Z,48.03
2018-07-31T07:29:35.013Z,47.99
2018-07-31T07:32:03.237Z,46.48
2018-07-31T07:34:31.453Z,46.75
2018-07-31T07:36:59.541Z,46.47
2018-07-31T07:39:27.654Z,46.01
2018-07-31T07:41:55.734Z,45.14
2018-07-31T07:44:23.817Z,47.15
2018-07-31T07:46:51.895Z,45.76
2018-07-31T07:49:20.282Z,43.58
2018-07-31T07:51:48.379Z,44.14
2018-07-31T07:54:16.556Z,43.12
2018-07-31T22:02:38.593Z,45.68
2018-07-31T22:05:06.671Z,45.15
2018-07-31T22:07:34.766Z,45.31
2018-07-31T22:10:02.924Z,46.37
2018-07-31T22:12:31.317Z,45.62
2018-07-31T22:14:59.435Z,46.37
2018-07-31T22:17:27.530Z,46.78
2018-07-31T22:19:55.737Z,45.99
2018-07-31T22:22:23.835Z,46.79
2018-07-31T22:24:52.225Z,47.71
2018-07-31T22:27:20.305Z,47.37
2018-07-31T22:29:48.416Z,48.47
2018-07-31T22:32:17.315Z,47.97
2018-07-31T22:34:45.440Z,48.12
2018-07-31T22:37:13.545Z,48.51
2018-07-31T22:39:41.724Z,48.40
2018-07-31T22:42:09.802Z,47.90
2018-07-31T22:44:37.921Z,48.37
2018-07-31T22:47:06.044Z,47.30
2018-07-31T22:49:34.151Z,47.80
2018-07-31T22:52:02.511Z,48.36
2018-07-31T22:54:30.900Z,47.80
2018-07-31T22:56:59.020Z,46.90
2018-07-31T22:59:27.110Z,47.20
2018-07-31T23:01:55.228Z,46.73
2018-07-31T23:04:23.319Z,47.52
2018-07-31T23:06:51.419Z,46.86
2018-07-31T23:09:19.515Z,45.76
2018-07-31T23:11:48.617Z,45.90
2018-07-31T23:14:16.723Z,46.33
2018-07-31T23:16:44.821Z,46.08
2018-07-31T23:19:12.932Z,46.53
2018-07-31T23:21:41.038Z,45.93
2018-07-31T23:24:09.127Z,46.87
2018-07-31T23:26:37.227Z,45.93
2018-07-31T23:29:05.310Z,46.17
2018-07-31T23:31:33.491Z,45.81
2018-07-31T23:34:01.569Z,46.51
2018-07-31T23:36:29.735Z,46.34
2018-07-31T23:38:57.918Z,47.52
2018-07-31T23:41:26.015Z,47.13
2018-07-31T23:43:54.132Z,47.70
2018-07-31T23:46:22.232Z,48.03
2018-07-31T23:48:50.407Z,47.75
2018-07-31T23:51:18.571Z,48.49
2018-07-31T23:53:46.668Z,47.87
2018-07-31T23:56:14.751Z,48.62
2018-07-31T23:58:43.415Z,48.25
